createdAt,value
2019-05-01T00:00:50.665Z,4.31
2019-05-01T00:02:50.687Z,4.32
2019-05-01T00:04:50.381Z,4.37
2019-05-01T00:06:50.301Z,4.34
2019-05-01T00:08:50.362Z,4.26
2019-05-01T00:10:50.391Z,4.19
2019-05-01T00:12:50.394Z,4.16
2019-05-01T00:14:50.473Z,4.11
2019-05-01T00:16:49.721Z,4.09
2019-05-01T00:18:49.720Z,4.00
2019-05-01T00:20:49.752Z,4.02
2019-05-01T00:22:49.756Z,4.02
2019-05-01T00:24:49.856Z,4.02
2019-05-01T00:26:50.136Z,4.00
2019-05-01T00:28:50.140Z,3.99
2019-05-01T00:30:50.224Z,4.00
2019-05-01T00:32:50.198Z,3.96
2019-05-01T00:34:50.567Z,3.96
2019-05-01T00:36:49.750Z,3.89
2019-05-01T00:38:49.874Z,3.88
2019-05-01T00:40:49.879Z,3.91
2019-05-01T00:42:49.965Z,3.88
2019-05-01T00:44:49.990Z,3.83
2019-05-01T00:46:50.272Z,3.83
2019-05-01T00:48:50.277Z,3.78
2019-05-01T00:50:50.390Z,3.73
2019-05-01T00:52:50.448Z,3.70
2019-05-01T00:54:50.498Z,3.65
2019-05-01T00:56:50.481Z,3.62
2019-05-01T00:58:50.505Z,3.59
2019-05-01T01:00:50.607Z,3.58
2019-05-01T01:02:50.565Z,3.57
2019-05-01T01:04:49.990Z,3.58
2019-05-01T01:06:50.164Z,3.57
2019-05-01T01:08:50.229Z,3.51
2019-05-01T01:10:50.308Z,3.47
2019-05-01T01:12:50.323Z,3.45
2019-05-01T01:14:50.327Z,3.39
2019-05-01T01:16:50.485Z,3.33
2019-05-01T01:18:50.610Z,3.31
2019-05-01T01:20:50.670Z,3.29
2019-05-01T01:22:49.807Z,3.27
2019-05-01T01:24:50.006Z,3.24
2019-05-01T01:26:50.327Z,3.21
2019-05-01T01:28:50.445Z,3.16
2019-05-01T01:30:57.148Z,3.13
2019-05-01T01:32:50.223Z,3.12
2019-05-01T01:34:50.634Z,3.14
2019-05-01T01:36:49.939Z,3.14
2019-05-01T01:38:50.002Z,3.11
2019-05-01T01:40:50.073Z,3.06
2019-05-01T01:42:50.140Z,3.05
2019-05-01T01:44:50.223Z,3.04
2019-05-01T01:46:50.399Z,3.01
2019-05-01T01:48:50.448Z,2.97
2019-05-01T01:50:50.486Z,2.99
2019-05-01T01:52:50.602Z,2.97
2019-05-01T01:54:50.596Z,2.94
2019-05-01T01:56:49.733Z,2.87
2019-05-01T01:58:49.825Z,2.86
2019-05-01T02:00:49.809Z,2.82
2019-05-01T02:02:49.946Z,2.85
2019-05-01T02:04:50.295Z,2.87
2019-05-01T02:06:50.381Z,2.87
2019-05-01T02:08:57.171Z,2.90
2019-05-01T02:10:50.175Z,2.88
2019-05-01T02:12:50.204Z,2.88
2019-05-01T02:14:50.274Z,2.91
2019-05-01T02:16:50.460Z,2.92
2019-05-01T02:18:50.537Z,2.91
2019-05-01T02:20:50.649Z,2.84
2019-05-01T02:22:49.688Z,2.83
2019-05-01T02:24:50.668Z,2.82
2019-05-01T02:26:49.939Z,2.82
2019-05-01T02:28:49.995Z,2.80
2019-05-01T02:30:50.086Z,2.78
2019-05-01T02:32:50.174Z,2.75
2019-05-01T02:34:50.583Z,2.71
2019-05-01T02:36:49.973Z,2.68
2019-05-01T02:38:50.020Z,2.68
2019-05-01T02:40:50.059Z,2.66
2019-05-01T02:42:50.517Z,2.65
2019-05-01T02:44:50.673Z,2.64
2019-05-01T02:46:49.733Z,2.59
2019-05-01T02:48:53.221Z,2.59
2019-05-01T02:50:50.162Z,2.54
2019-05-01T02:52:50.311Z,2.51
2019-05-01T02:54:50.412Z,2.48
2019-05-01T02:56:50.605Z,2.46
2019-05-01T02:58:49.762Z,2.44
2019-05-01T03:00:49.783Z,2.42
2019-05-01T03:02:49.936Z,2.42
2019-05-01T03:04:50.383Z,2.40
2019-05-01T03:06:50.700Z,2.36
2019-05-01T03:08:49.757Z,2.36
2019-05-01T03:10:49.782Z,2.35
2019-05-01T03:12:49.938Z,2.35
2019-05-01T03:14:50.009Z,2.33
2019-05-01T03:16:50.197Z,2.32
2019-05-01T03:18:50.267Z,2.31
2019-05-01T03:20:50.425Z,2.31
2019-05-01T03:22:49.819Z,2.32
2019-05-01T03:24:50.150Z,2.32
2019-05-01T03:26:50.258Z,2.31
2019-05-01T03:28:50.258Z,2.27
2019-05-01T03:30:50.382Z,2.24
2019-05-01T03:32:50.484Z,2.27
2019-05-01T03:34:53.711Z,2.28
2019-05-01T03:36:49.949Z,2.28
2019-05-01T03:38:50.005Z,2.23
2019-05-01T03:40:50.020Z,2.21
2019-05-01T03:42:50.041Z,2.18
2019-05-01T03:44:50.120Z,2.15
2019-05-01T03:46:50.278Z,2.15
2019-05-01T03:48:50.402Z,2.10
2019-05-01T03:50:50.425Z,2.09
2019-05-01T03:52:50.573Z,2.07
2019-05-01T03:54:50.666Z,2.07
2019-05-01T03:56:49.919Z,2.07
2019-05-01T03:58:49.925Z,2.07
2019-05-01T04:00:50.021Z,2.04
2019-05-01T04:02:50.153Z,2.02
2019-05-01T04:04:50.578Z,2.05
2019-05-01T04:06:49.765Z,2.08
2019-05-01T04:08:49.773Z,2.09
2019-05-01T04:10:49.944Z,2.11
2019-05-01T04:12:50.009Z,2.14
2019-05-01T04:14:50.156Z,2.12
2019-05-01T04:16:50.344Z,2.10
2019-05-01T04:18:50.491Z,2.10
2019-05-01T04:20:50.547Z,2.12
2019-05-01T04:22:50.579Z,2.13
2019-05-01T04:24:50.670Z,2.13
2019-05-01T04:26:50.572Z,2.13
2019-05-01T04:28:50.555Z,2.12
2019-05-01T04:30:49.715Z,2.11
2019-05-01T04:32:53.746Z,2.15
2019-05-01T04:34:50.231Z,2.19
2019-05-01T04:36:50.395Z,2.19
2019-05-01T04:38:50.438Z,2.28
2019-05-01T04:40:50.552Z,2.33
2019-05-01T04:42:50.567Z,2.40
2019-05-01T04:44:50.551Z,2.49
2019-05-01T04:46:49.804Z,2.60
2019-05-01T04:48:49.872Z,2.64
2019-05-01T04:50:49.881Z,2.77
2019-05-01T04:52:49.952Z,2.84
2019-05-01T04:54:49.931Z,2.93
2019-05-01T04:56:50.098Z,3.05
2019-05-01T04:58:50.130Z,3.11
2019-05-01T05:00:50.223Z,3.15
2019-05-01T05:02:50.257Z,3.20
2019-05-01T05:04:50.644Z,3.22
2019-05-01T05:06:49.853Z,3.26
2019-05-01T05:08:49.905Z,3.27
2019-05-01T05:10:49.898Z,3.27
2019-05-01T05:12:49.998Z,3.28
2019-05-01T05:14:50.102Z,3.30
2019-05-01T05:16:50.262Z,3.31
2019-05-01T05:18:50.219Z,3.34
2019-05-01T05:20:50.314Z,3.34
2019-05-01T05:22:50.358Z,3.37
2019-05-01T05:24:50.374Z,3.43
2019-05-01T05:26:50.658Z,3.47
2019-05-01T05:28:49.711Z,3.55
2019-05-01T05:30:49.751Z,3.66
2019-05-01T05:32:49.887Z,3.76
2019-05-01T05:34:50.372Z,3.87
2019-05-01T05:36:49.982Z,3.87
2019-05-01T05:38:50.093Z,4.02
2019-05-01T05:40:50.079Z,4.10
2019-05-01T05:42:50.107Z,4.18
2019-05-01T05:44:50.181Z,4.23
2019-05-01T05:46:50.407Z,4.23
2019-05-01T05:48:50.345Z,4.23
2019-05-01T05:50:50.365Z,4.29
2019-05-01T05:52:50.383Z,4.43
2019-05-01T05:54:50.399Z,4.60
2019-05-01T05:56:49.983Z,4.82
2019-05-01T05:58:50.020Z,4.95
2019-05-01T06:00:50.091Z,5.14
2019-05-01T06:02:50.149Z,5.36
2019-05-01T06:04:50.547Z,5.64
2019-05-01T06:06:49.957Z,5.85
2019-05-01T06:08:49.994Z,6.14
2019-05-01T06:11:00.228Z,6.33
2019-05-01T06:12:50.186Z,6.40
2019-05-01T06:14:50.242Z,6.39
2019-05-01T06:16:54.244Z,6.44
2019-05-01T06:18:50.299Z,6.53
2019-05-01T06:20:50.393Z,6.68
2019-05-01T06:22:50.358Z,6.68
2019-05-01T06:24:50.362Z,6.92
2019-05-01T06:26:50.520Z,6.98
2019-05-01T06:28:50.555Z,7.22
2019-05-01T06:30:50.571Z,7.43
2019-05-01T06:32:50.662Z,7.53
2019-05-01T06:34:50.177Z,7.53
2019-05-01T06:36:51.648Z,7.63
2019-05-01T06:38:49.682Z,7.67
2019-05-01T06:41:00.033Z,7.82
2019-05-01T06:42:51.433Z,7.91
2019-05-01T06:44:50.458Z,7.93
2019-05-01T06:46:50.152Z,7.96
2019-05-01T06:48:54.932Z,8.02
2019-05-01T06:50:50.729Z,8.15
2019-05-01T06:52:50.096Z,8.27
2019-05-01T06:54:53.812Z,8.49
2019-05-01T06:56:49.961Z,8.52
2019-05-01T06:58:56.608Z,8.75
2019-05-01T07:00:49.692Z,8.74
2019-05-01T07:02:49.892Z,8.87
2019-05-01T07:04:50.483Z,8.95
2019-05-01T07:06:50.646Z,9.12
2019-05-01T07:08:49.698Z,9.19
2019-05-01T07:10:49.803Z,9.33
2019-05-01T07:12:49.756Z,9.34
2019-05-01T07:14:52.481Z,9.33
2019-05-01T07:16:49.693Z,9.36
2019-05-01T07:18:50.179Z,9.58
2019-05-01T07:20:53.625Z,9.73
2019-05-01T07:22:49.705Z,9.77
2019-05-01T07:24:49.852Z,9.73
2019-05-01T07:26:50.015Z,9.68
2019-05-01T07:28:50.111Z,9.75
2019-05-01T07:30:56.316Z,9.89
2019-05-01T07:32:50.381Z,10.05
2019-05-01T07:34:49.792Z,10.29
2019-05-01T07:36:51.960Z,10.43
2019-05-01T07:38:49.950Z,10.58
2019-05-01T07:40:49.939Z,10.67
2019-05-01T07:42:49.999Z,10.79
2019-05-01T07:44:50.005Z,10.84
2019-05-01T07:46:56.472Z,11.15
2019-05-01T07:48:50.669Z,11.15
2019-05-01T07:50:50.654Z,11.06
2019-05-01T07:52:54.217Z,11.15
2019-05-01T07:54:50.226Z,11.23
2019-05-01T07:56:50.322Z,11.38
2019-05-01T07:58:53.606Z,11.61
2019-05-01T08:00:50.613Z,11.68
2019-05-01T08:02:50.659Z,11.72
2019-05-01T08:04:50.163Z,11.91
2019-05-01T08:06:58.822Z,12.09
2019-05-01T08:08:49.863Z,12.09
2019-05-01T08:10:49.988Z,12.19
2019-05-01T08:12:50.086Z,12.15
2019-05-01T08:14:53.911Z,12.26
2019-05-01T08:16:50.025Z,12.61
2019-05-01T08:18:50.030Z,12.91
2019-05-01T08:20:51.762Z,13.15
2019-05-01T08:22:49.685Z,13.24
2019-05-01T08:25:00.077Z,13.38
2019-05-01T08:26:50.242Z,13.48
2019-05-01T08:28:50.255Z,13.66
2019-05-01T08:30:54.255Z,13.91
2019-05-01T08:32:50.597Z,14.10
2019-05-01T08:34:50.117Z,14.38
2019-05-01T08:36:50.331Z,14.29
2019-05-01T08:38:50.320Z,14.15
2019-05-01T08:40:56.940Z,14.26
2019-05-01T08:42:50.007Z,14.36
2019-05-01T08:44:50.107Z,14.43
2019-05-01T08:46:52.392Z,14.51
2019-05-01T08:48:50.344Z,14.66
2019-05-01T08:50:50.409Z,15.11
2019-05-01T08:52:50.396Z,15.27
2019-05-01T08:54:50.576Z,15.25
2019-05-01T08:57:00.072Z,15.19
2019-05-01T08:58:50.851Z,15.29
2019-05-01T09:00:49.920Z,15.27
2019-05-01T09:02:49.889Z,15.26
2019-05-01T09:05:07.316Z,15.37
2019-05-01T09:06:50.478Z,15.40
2019-05-01T09:08:50.449Z,15.34
2019-05-01T09:11:02.445Z,15.18
2019-05-01T09:12:52.432Z,15.36
2019-05-01T09:14:51.674Z,15.56
2019-05-01T09:16:52.865Z,15.48
2019-05-01T09:18:49.890Z,15.34
2019-05-01T09:20:50.035Z,15.25
2019-05-01T09:22:50.069Z,15.24
2019-05-01T09:24:49.982Z,15.16
2019-05-01T09:26:51.791Z,15.16
2019-05-01T09:28:49.757Z,15.25
2019-05-01T09:30:49.806Z,15.12
2019-05-01T09:32:55.746Z,15.27
2019-05-01T09:34:50.208Z,15.40
2019-05-01T09:36:50.417Z,15.45
2019-05-01T09:38:50.520Z,15.56
2019-05-01T09:40:50.518Z,15.71
2019-05-01T09:42:50.559Z,15.46
2019-05-01T09:44:49.806Z,15.40
2019-05-01T09:46:50.048Z,15.47
2019-05-01T09:48:50.287Z,15.62
2019-05-01T09:50:50.360Z,15.91
2019-05-01T09:52:50.540Z,16.24
2019-05-01T09:54:50.453Z,16.21
2019-05-01T09:56:49.920Z,16.20
2019-05-01T09:58:49.991Z,16.16
2019-05-01T10:00:54.163Z,15.88
2019-05-01T10:02:50.222Z,16.05
2019-05-01T10:04:50.559Z,15.72
2019-05-01T10:06:54.314Z,15.63
2019-05-01T10:08:50.227Z,15.49
2019-05-01T10:10:50.336Z,15.32
2019-05-01T10:12:50.389Z,15.32
2019-05-01T10:14:50.371Z,15.72
2019-05-01T10:16:50.632Z,15.66
2019-05-01T10:18:50.659Z,15.51
2019-05-01T10:20:49.690Z,15.85
2019-05-01T10:22:49.780Z,15.96
2019-05-01T10:24:49.799Z,16.07
2019-05-01T10:26:49.981Z,15.98
2019-05-01T10:28:51.800Z,16.02
2019-05-01T10:30:49.948Z,16.09
2019-05-01T10:32:59.774Z,16.24
2019-05-01T10:34:50.208Z,16.00
2019-05-01T10:36:56.091Z,16.07
2019-05-01T10:38:50.070Z,16.18
2019-05-01T10:40:50.123Z,16.42
2019-05-01T10:42:50.163Z,16.24
2019-05-01T10:44:50.182Z,16.26
2019-05-01T10:46:50.518Z,16.21
2019-05-01T10:48:50.547Z,15.85
2019-05-01T10:50:50.657Z,15.66
2019-05-01T10:52:49.701Z,15.68
2019-05-01T10:54:50.653Z,15.76
2019-05-01T10:56:49.836Z,15.85
2019-05-01T10:58:49.822Z,15.76
2019-05-01T11:00:49.852Z,15.84
2019-05-01T11:02:49.964Z,16.04
2019-05-01T11:04:50.437Z,15.83
2019-05-01T11:06:50.542Z,16.00
2019-05-01T11:08:50.571Z,15.93
2019-05-01T11:10:50.576Z,15.73
2019-05-01T11:12:49.780Z,15.63
2019-05-01T11:14:49.878Z,15.60
2019-05-01T11:16:50.120Z,15.74
2019-05-01T11:18:50.176Z,15.73
2019-05-01T11:20:50.233Z,15.67
2019-05-01T11:22:50.313Z,15.68
2019-05-01T11:24:50.326Z,15.46
2019-05-01T11:26:50.486Z,15.37
2019-05-01T11:28:50.529Z,15.62
2019-05-01T11:30:50.664Z,15.71
2019-05-01T11:32:50.677Z,15.75
2019-05-01T11:34:50.133Z,15.88
2019-05-01T11:36:50.116Z,15.94
2019-05-01T11:38:50.157Z,15.93
2019-05-01T11:40:50.422Z,16.03
2019-05-01T11:42:50.548Z,15.94
2019-05-01T11:44:50.655Z,16.07
2019-05-01T11:46:49.813Z,16.11
2019-05-01T11:48:49.938Z,16.11
2019-05-01T11:50:49.901Z,16.12
2019-05-01T11:52:50.015Z,16.26
2019-05-01T11:54:50.104Z,16.29
2019-05-01T11:56:50.238Z,16.33
2019-05-01T11:58:50.276Z,16.58
2019-05-01T12:00:50.199Z,16.58
2019-05-01T12:02:50.228Z,16.68
2019-05-01T12:04:50.656Z,16.68
2019-05-01T12:06:49.867Z,16.58
2019-05-01T12:08:49.779Z,16.23
2019-05-01T12:10:49.865Z,16.10
2019-05-01T12:12:49.856Z,16.36
2019-05-01T12:14:49.885Z,16.36
2019-05-01T12:16:49.961Z,16.67
2019-05-01T12:18:49.985Z,16.51
2019-05-01T12:20:49.998Z,16.48
2019-05-01T12:22:51.971Z,16.61
2019-05-01T12:24:49.979Z,16.83
2019-05-01T12:26:50.022Z,17.05
2019-05-01T12:28:50.007Z,17.18
2019-05-01T12:30:49.993Z,17.07
2019-05-01T12:32:50.070Z,17.07
2019-05-01T12:34:50.512Z,16.83
2019-05-01T12:36:50.625Z,16.65
2019-05-01T12:38:50.697Z,16.70
2019-05-01T12:40:50.665Z,16.85
2019-05-01T12:42:49.781Z,16.98
2019-05-01T12:44:49.806Z,17.10
2019-05-01T12:46:49.867Z,17.16
2019-05-01T12:48:49.953Z,17.37
2019-05-01T12:50:49.996Z,17.46
2019-05-01T12:52:49.984Z,17.72
2019-05-01T12:54:52.445Z,17.09
2019-05-01T12:56:49.688Z,17.13
2019-05-01T12:58:49.826Z,17.64
2019-05-01T13:00:49.834Z,17.75
2019-05-01T13:02:49.907Z,17.64
2019-05-01T13:04:50.468Z,17.59
2019-05-01T13:06:50.593Z,17.52
2019-05-01T13:08:50.588Z,17.46
2019-05-01T13:10:50.697Z,17.56
2019-05-01T13:12:49.823Z,17.65
2019-05-01T13:14:49.798Z,18.07
2019-05-01T13:16:50.132Z,18.29
2019-05-01T13:18:50.126Z,18.09
2019-05-01T13:20:50.167Z,18.25
2019-05-01T13:22:50.161Z,18.23
2019-05-01T13:24:50.209Z,18.82
2019-05-01T13:26:50.401Z,19.1
2019-05-01T13:28:50.201Z,19.2
2019-05-01T13:30:50.699Z,19.2
2019-05-01T13:32:50.621Z,19.2
2019-05-01T13:34:49.976Z,19.2
2019-05-01T13:37:03.666Z,19.2
2019-05-01T13:38:50.261Z,19.3
2019-05-01T13:40:50.321Z,19.3
2019-05-01T13:42:50.359Z,19.3
2019-05-01T13:44:50.449Z,19.3
2019-05-01T13:46:50.565Z,19.3
2019-05-01T13:48:49.705Z,19.4
2019-05-01T13:50:49.805Z,19.3
2019-05-01T13:52:49.744Z,19.2
2019-05-01T13:54:49.865Z,19.2
2019-05-01T13:56:50.000Z,19.2
2019-05-01T13:58:50.060Z,19.2
2019-05-01T14:00:50.159Z,19.2
2019-05-01T14:02:50.200Z,19.1
2019-05-01T14:04:50.518Z,19.0
2019-05-01T14:06:50.632Z,19.0
2019-05-01T14:08:50.597Z,19.0
2019-05-01T14:10:50.578Z,19.0
2019-05-01T14:12:49.690Z,19.0
2019-05-01T14:14:50.667Z,19.1
2019-05-01T14:16:49.873Z,19.1
2019-05-01T14:18:49.844Z,19.1
2019-05-01T14:20:49.898Z,19.1
2019-05-01T14:22:50.126Z,19.1
2019-05-01T14:24:49.859Z,19.1
2019-05-01T14:26:50.046Z,19.1
2019-05-01T14:28:50.150Z,19.2
2019-05-01T14:30:50.182Z,19.1
2019-05-01T14:32:52.178Z,19.1
2019-05-01T14:34:50.489Z,19.2
2019-05-01T14:36:50.621Z,19.3
2019-05-01T14:38:50.561Z,19.3
2019-05-01T14:40:50.538Z,19.3
2019-05-01T14:42:50.595Z,19.4
2019-05-01T14:44:51.150Z,19.4
2019-05-01T14:46:50.310Z,19.4
2019-05-01T14:48:50.273Z,19.4
2019-05-01T14:50:50.427Z,19.4
2019-05-01T14:52:50.402Z,19.4
2019-05-01T14:54:50.538Z,19.5
2019-05-01T14:56:49.701Z,19.5
2019-05-01T14:58:49.806Z,19.5
2019-05-01T15:00:49.814Z,19.5
2019-05-01T15:02:49.936Z,19.5
2019-05-01T15:04:50.424Z,19.5
2019-05-01T15:06:50.619Z,19.5
2019-05-01T15:08:50.647Z,19.5
2019-05-01T15:10:50.611Z,19.5
2019-05-01T15:12:50.630Z,19.6
2019-05-01T15:14:49.727Z,19.6
2019-05-01T15:16:49.914Z,19.5
2019-05-01T15:18:49.978Z,19.6
2019-05-01T15:20:49.982Z,19.6
2019-05-01T15:22:49.980Z,19.6
2019-05-01T15:24:50.101Z,19.6
2019-05-01T15:26:50.235Z,19.6
2019-05-01T15:28:50.329Z,19.6
2019-05-01T15:30:50.358Z,19.6
2019-05-01T15:32:50.413Z,19.6
2019-05-01T15:34:49.796Z,19.6
2019-05-01T15:36:50.004Z,19.5
2019-05-01T15:38:50.059Z,19.5
2019-05-01T15:40:50.136Z,19.5
2019-05-01T15:42:50.132Z,19.5
2019-05-01T15:44:50.167Z,19.6
2019-05-01T15:46:50.309Z,19.6
2019-05-01T15:48:50.294Z,19.6
2019-05-01T15:50:50.272Z,19.6
2019-05-01T15:52:50.360Z,19.6
2019-05-01T15:54:50.482Z,19.6
2019-05-01T15:56:49.708Z,19.6
2019-05-01T15:58:50.659Z,19.6
2019-05-01T16:00:49.753Z,19.5
2019-05-01T16:02:49.873Z,19.4
2019-05-01T16:04:50.318Z,19.4
2019-05-01T16:06:50.596Z,19.4
2019-05-01T16:08:50.689Z,19.4
2019-05-01T16:10:49.758Z,19.4
2019-05-01T16:12:49.944Z,19.4
2019-05-01T16:14:49.891Z,19.3
2019-05-01T16:16:50.185Z,19.3
2019-05-01T16:18:50.216Z,19.3
2019-05-01T16:20:50.246Z,19.3
2019-05-01T16:22:50.253Z,19.3
2019-05-01T16:24:50.263Z,19.4
2019-05-01T16:26:50.543Z,19.4
2019-05-01T16:28:50.617Z,19.3
2019-05-01T16:30:50.673Z,19.3
2019-05-01T16:32:49.740Z,19.3
2019-05-01T16:34:50.047Z,19.3
2019-05-01T16:36:50.219Z,19.3
2019-05-01T16:38:50.316Z,19.3
2019-05-01T16:40:50.367Z,19.3
2019-05-01T16:42:50.442Z,19.4
2019-05-01T16:44:50.512Z,19.26
2019-05-01T16:46:49.719Z,19.09
2019-05-01T16:48:49.863Z,19.08
2019-05-01T16:50:49.896Z,18.93
2019-05-01T16:52:49.971Z,18.82
2019-05-01T16:54:59.887Z,18.69
2019-05-01T16:56:50.122Z,18.66
2019-05-01T16:58:50.170Z,18.55
2019-05-01T17:00:50.350Z,18.36
2019-05-01T17:02:50.394Z,18.30
2019-05-01T17:04:50.673Z,18.18
2019-05-01T17:06:49.956Z,18.09
2019-05-01T17:08:50.343Z,18.08
2019-05-01T17:10:50.375Z,17.99
2019-05-01T17:12:50.367Z,17.95
2019-05-01T17:14:50.345Z,17.87
2019-05-01T17:16:50.650Z,17.85
2019-05-01T17:18:50.628Z,17.79
2019-05-01T17:20:50.667Z,17.73
2019-05-01T17:22:52.139Z,17.67
2019-05-01T17:24:50.154Z,17.58
2019-05-01T17:26:50.278Z,17.52
2019-05-01T17:28:50.368Z,17.44
2019-05-01T17:30:50.371Z,17.35
2019-05-01T17:32:50.479Z,17.31
2019-05-01T17:34:49.905Z,17.23
2019-05-01T17:36:50.207Z,17.11
2019-05-01T17:38:50.391Z,16.98
2019-05-01T17:40:53.824Z,16.88
2019-05-01T17:42:49.784Z,16.67
2019-05-01T17:44:49.845Z,16.57
2019-05-01T17:46:50.076Z,16.42
2019-05-01T17:48:50.142Z,16.30
2019-05-01T17:50:50.228Z,16.19
2019-05-01T17:52:50.318Z,16.03
2019-05-01T17:54:50.293Z,15.90
2019-05-01T17:56:55.975Z,15.71
2019-05-01T17:58:50.030Z,15.58
2019-05-01T18:00:50.105Z,15.41
2019-05-01T18:02:50.156Z,15.34
2019-05-01T18:04:50.476Z,15.12
2019-05-01T18:06:50.542Z,14.87
2019-05-01T18:09:13.262Z,14.69
2019-05-01T18:10:50.112Z,14.48
2019-05-01T18:12:50.169Z,14.48
2019-05-01T18:14:50.305Z,14.13
2019-05-01T18:16:50.562Z,14.04
2019-05-01T18:18:50.633Z,13.89
2019-05-01T18:20:49.707Z,13.81
2019-05-01T18:22:49.845Z,13.76
2019-05-01T18:24:59.808Z,13.67
2019-05-01T18:26:50.092Z,13.61
2019-05-01T18:28:50.173Z,13.58
2019-05-01T18:30:58.409Z,13.47
2019-05-01T18:32:52.946Z,13.36
2019-05-01T18:34:50.316Z,13.36
2019-05-01T18:36:50.550Z,13.07
2019-05-01T18:38:50.575Z,12.92
2019-05-01T18:40:50.658Z,12.82
2019-05-01T18:42:50.628Z,12.67
2019-05-01T18:44:49.694Z,12.56
2019-05-01T18:46:49.885Z,12.46
2019-05-01T18:48:50.029Z,12.46
2019-05-01T18:50:56.640Z,12.25
2019-05-01T18:52:49.662Z,12.18
2019-05-01T18:54:49.744Z,12.16
2019-05-01T18:56:49.968Z,12.06
2019-05-01T18:58:49.904Z,12.06
2019-05-01T19:00:49.908Z,11.94
2019-05-01T19:02:49.968Z,11.93
2019-05-01T19:04:50.443Z,11.87
2019-05-01T19:06:50.654Z,11.79
2019-05-01T19:08:50.611Z,11.69
2019-05-01T19:10:50.575Z,11.58
2019-05-01T19:12:50.619Z,11.56
2019-05-01T19:14:49.732Z,11.48
2019-05-01T19:16:49.902Z,11.38
2019-05-01T19:18:49.998Z,11.28
2019-05-01T19:21:00.296Z,11.22
2019-05-01T19:22:50.345Z,11.16
2019-05-01T19:24:50.422Z,11.06
2019-05-01T19:26:50.605Z,11.02
2019-05-01T19:28:49.737Z,10.99
2019-05-01T19:30:50.778Z,10.97
2019-05-01T19:32:50.040Z,10.92
2019-05-01T19:34:50.551Z,10.77
2019-05-01T19:36:51.937Z,10.72
2019-05-01T19:38:49.993Z,10.70
2019-05-01T19:40:50.102Z,10.62
2019-05-01T19:43:00.334Z,10.55
2019-05-01T19:44:57.916Z,10.51
2019-05-01T19:46:50.258Z,10.46
2019-05-01T19:48:52.944Z,10.41
2019-05-01T19:50:50.116Z,10.39
2019-05-01T19:52:50.240Z,10.33
2019-05-01T19:54:50.307Z,10.30
2019-05-01T19:56:50.597Z,10.27
2019-05-01T19:58:50.726Z,10.21
2019-05-01T20:00:50.002Z,10.12
2019-05-01T20:03:00.455Z,10.05
2019-05-01T20:04:52.659Z,10.00
2019-05-01T20:06:50.001Z,9.87
2019-05-01T20:08:50.317Z,9.80
2019-05-01T20:10:50.359Z,9.73
2019-05-01T20:12:50.496Z,9.68
2019-05-01T20:14:50.523Z,9.61
2019-05-01T20:16:51.353Z,9.58
2019-05-01T20:18:50.321Z,9.60
2019-05-01T20:20:50.343Z,9.60
2019-05-01T20:22:55.731Z,9.61
2019-05-01T20:24:49.773Z,9.61
2019-05-01T20:26:50.101Z,9.57
2019-05-01T20:28:50.205Z,9.52
2019-05-01T20:30:50.343Z,9.50
2019-05-01T20:32:50.379Z,9.45
2019-05-01T20:34:54.242Z,9.41
2019-05-01T20:36:50.337Z,9.34
2019-05-01T20:38:50.444Z,9.31
2019-05-01T20:40:50.438Z,9.25
2019-05-01T20:42:50.511Z,9.14
2019-05-01T20:45:17.303Z,9.12
2019-05-01T20:46:50.455Z,9.06
2019-05-01T20:48:50.494Z,9.03
2019-05-01T20:50:50.531Z,9.01
2019-05-01T20:52:50.570Z,8.97
2019-05-01T20:54:50.587Z,8.94
2019-05-01T20:56:49.848Z,8.90
2019-05-01T20:58:49.868Z,8.88
2019-05-01T21:00:54.952Z,8.85
2019-05-01T21:02:50.066Z,8.81
2019-05-01T21:04:50.552Z,8.74
2019-05-01T21:06:50.164Z,8.68
2019-05-01T21:08:50.251Z,8.65
2019-05-01T21:10:51.284Z,8.64
2019-05-01T21:12:50.341Z,8.60
2019-05-01T21:14:51.384Z,8.57
2019-05-01T21:16:50.589Z,8.48
2019-05-01T21:18:50.627Z,8.44
2019-05-01T21:20:50.598Z,8.40
2019-05-01T21:22:49.743Z,8.36
2019-05-01T21:24:49.692Z,8.34
2019-05-01T21:26:49.903Z,8.30
2019-05-01T21:28:49.892Z,8.26
2019-05-01T21:30:49.876Z,8.24
2019-05-01T21:32:49.915Z,8.21
2019-05-01T21:34:50.310Z,8.16
2019-05-01T21:36:54.283Z,8.15
2019-05-01T21:38:50.386Z,8.12
2019-05-01T21:40:50.486Z,8.10
2019-05-01T21:42:56.102Z,8.10
2019-05-01T21:44:50.115Z,8.03
2019-05-01T21:46:50.409Z,8.00
2019-05-01T21:48:50.380Z,7.96
2019-05-01T21:50:50.538Z,7.94
2019-05-01T21:52:50.611Z,7.87
2019-05-01T21:54:57.264Z,7.84
2019-05-01T21:56:50.365Z,7.80
2019-05-01T21:58:50.369Z,7.79
2019-05-01T22:00:50.436Z,7.74
2019-05-01T22:02:50.466Z,7.71
2019-05-01T22:04:50.049Z,7.68
2019-05-01T22:06:53.961Z,7.63
2019-05-01T22:08:49.935Z,7.61
2019-05-01T22:10:52.691Z,7.56
2019-05-01T22:12:51.120Z,7.54
2019-05-01T22:14:50.193Z,7.49
2019-05-01T22:16:58.083Z,7.49
2019-05-01T22:18:50.177Z,7.47
2019-05-01T22:20:50.252Z,7.46
2019-05-01T22:22:50.326Z,7.42
2019-05-01T22:24:50.432Z,7.40
2019-05-01T22:26:50.634Z,7.37
2019-05-01T22:28:56.232Z,7.38
2019-05-01T22:30:50.371Z,7.39
2019-05-01T22:32:50.412Z,7.36
2019-05-01T22:34:49.855Z,7.32
2019-05-01T22:36:50.084Z,7.28
2019-05-01T22:38:50.180Z,7.26
2019-05-01T22:40:50.177Z,7.26
2019-05-01T22:42:50.199Z,7.25
2019-05-01T22:44:50.211Z,7.25
2019-05-01T22:46:50.399Z,7.23
2019-05-01T22:48:50.405Z,7.21
2019-05-01T22:50:50.413Z,7.19
2019-05-01T22:52:50.377Z,7.16
2019-05-01T22:54:50.390Z,7.12
2019-05-01T22:56:49.771Z,7.10
2019-05-01T22:58:49.720Z,7.10
2019-05-01T23:00:49.764Z,7.07
2019-05-01T23:02:49.744Z,7.04
2019-05-01T23:04:53.457Z,7.02
2019-05-01T23:06:50.549Z,7.00
2019-05-01T23:08:50.619Z,6.99
2019-05-01T23:10:49.736Z,6.97
2019-05-01T23:12:49.834Z,6.94
2019-05-01T23:14:49.987Z,6.93
2019-05-01T23:16:50.256Z,6.88
2019-05-01T23:18:53.417Z,6.86
2019-05-01T23:20:50.474Z,6.82
2019-05-01T23:22:50.484Z,6.77
2019-05-01T23:24:50.571Z,6.77
2019-05-01T23:26:53.244Z,6.69
2019-05-01T23:28:50.294Z,6.67
2019-05-01T23:30:50.272Z,6.62
2019-05-01T23:32:50.433Z,6.59
2019-05-01T23:34:49.729Z,6.56
2019-05-01T23:36:49.945Z,6.56
2019-05-01T23:38:50.043Z,6.53
2019-05-01T23:40:53.319Z,6.52
2019-05-01T23:42:54.301Z,6.49
2019-05-01T23:44:50.429Z,6.48
2019-05-01T23:46:50.521Z,6.46
2019-05-01T23:48:50.516Z,6.43
2019-05-01T23:50:50.653Z,6.39
2019-05-01T23:52:50.644Z,6.33
2019-05-01T23:54:50.682Z,6.28
2019-05-01T23:56:49.816Z,6.26
2019-05-01T23:58:49.876Z,6.21
